Time;durP1;ratioP1;P1;durP2;ratioP2;P2;SDS_P1;SDS_P2;PMS_P1;PMS_P2;Temp;Humidity;BMP_temperature;BMP_pressure;BME280_temperature;BME280_humidity;BME280_pressure;Samples;Min_cycle;Max_cycle;Signal;HPM_P1;HPM_P2
2021/12/25 00:00:25;;;;;;;;;;;20.10;39.40;;;;;;5011713;28;19933;-57
2021/12/25 00:02:52;;;;;;;;;;;20.10;39.40;;;;;;5015946;28;19996;-56
2021/12/25 00:05:20;;;;;;;;;;;20.10;39.40;;;;;;5045629;28;20023;-54
2021/12/25 00:07:47;;;;;;;;;;;20.10;39.50;;;;;;5044242;28;20386;-51
2021/12/25 00:10:14;;;;;;;;;;;20.10;39.50;;;;;;5047382;28;19933;-55
2021/12/25 00:12:40;;;;;;;;;;;20.10;39.50;;;;;;5061847;28;20382;-55
2021/12/25 00:15:07;;;;;;;;;;;20.10;39.50;;;;;;5045430;28;19926;-55
2021/12/25 00:17:35;;;;;;;;;;;20.10;39.50;;;;;;5027896;28;19929;-53
2021/12/25 00:20:02;;;;;;;;;;;20.10;39.50;;;;;;5027801;28;19932;-54
2021/12/25 00:22:29;;;;;;;;;;;20.10;39.50;;;;;;5009863;28;20430;-55
2021/12/25 00:24:56;;;;;;;;;;;20.10;39.60;;;;;;5025422;28;19925;-56
2021/12/25 00:30:29;;;;;;;;;;;20.10;39.60;;;;;;5025549;28;20254;-53
2021/12/25 00:33:02;;;;;;;;;;;20.10;39.60;;;;;;5028462;28;20023;-54
2021/12/25 00:35:29;;;;;;;;;;;20.10;39.60;;;;;;5029197;28;19925;-56
2021/12/25 00:37:56;;;;;;;;;;;20.10;39.60;;;;;;5024060;28;20353;-56
2021/12/25 00:40:23;;;;;;;;;;;20.10;39.60;;;;;;5020512;28;19965;-55
2021/12/25 00:42:49;;;;;;;;;;;20.10;39.70;;;;;;5026476;28;19936;-56
2021/12/25 00:45:16;;;;;;;;;;;20.10;39.60;;;;;;5018229;28;19929;-55
2021/12/25 00:47:43;;;;;;;;;;;20.10;39.60;;;;;;5027283;28;20000;-54
2021/12/25 00:50:11;;;;;;;;;;;20.10;39.60;;;;;;5021036;28;19933;-56
2021/12/25 00:52:37;;;;;;;;;;;20.10;39.70;;;;;;5013353;28;19973;-55
2021/12/25 00:55:07;;;;;;;;;;;20.10;39.70;;;;;;5025840;28;19940;-54
2021/12/25 00:57:34;;;;;;;;;;;20.10;39.70;;;;;;5013327;28;19925;-57
2021/12/25 01:00:00;;;;;;;;;;;20.10;39.70;;;;;;5040542;28;20354;-54
2021/12/25 01:02:28;;;;;;;;;;;20.10;39.70;;;;;;5029679;28;20155;-56
2021/12/25 01:04:54;;;;;;;;;;;20.10;39.70;;;;;;5016571;28;19940;-54
2021/12/25 01:07:22;;;;;;;;;;;20.10;39.70;;;;;;5031817;28;19929;-54
2021/12/25 01:09:49;;;;;;;;;;;20.10;39.80;;;;;;5022394;28;20473;-50
2021/12/25 01:12:16;;;;;;;;;;;20.10;39.70;;;;;;5013343;28;20447;-52
2021/12/25 01:14:48;;;;;;;;;;;20.10;39.80;;;;;;5035831;28;20020;-52
2021/12/25 01:25:50;;;;;;;;;;;20.10;39.80;;;;;;5012995;28;19925;-54
2021/12/25 01:28:52;;;;;;;;;;;20.10;39.80;;;;;;5013058;28;20375;-54
2021/12/25 01:31:25;;;;;;;;;;;20.10;39.80;;;;;;5048590;28;19933;-53
2021/12/25 01:36:57;;;;;;;;;;;20.10;39.80;;;;;;5002148;28;19926;-55
2021/12/25 01:39:40;;;;;;;;;;;20.10;39.90;;;;;;5031458;28;19948;-53
2021/12/25 01:47:44;;;;;;;;;;;20.10;39.90;;;;;;5031276;28;20015;-52
2021/12/25 01:47:47;;;;;;;;;;;20.10;40.50;;;;;;5033490;28;19925;-56
2021/12/25 01:50:14;;;;;;;;;;;20.10;39.90;;;;;;5028384;28;20272;-56
2021/12/25 01:52:40;;;;;;;;;;;20.10;39.90;;;;;;5028822;28;19936;-53
2021/12/25 01:55:12;;;;;;;;;;;20.10;39.90;;;;;;5032068;28;19929;-57
2021/12/25 01:57:40;;;;;;;;;;;20.10;40.00;;;;;;5036252;28;19932;-54
2021/12/25 02:00:08;;;;;;;;;;;20.10;39.90;;;;;;5029842;28;20525;-56
2021/12/25 02:02:34;;;;;;;;;;;20.10;39.90;;;;;;5047540;28;19925;-55
2021/12/25 02:05:01;;;;;;;;;;;20.10;40.00;;;;;;5047851;28;20015;-55
2021/12/25 02:07:28;;;;;;;;;;;20.10;40.00;;;;;;5047846;28;19968;-58
2021/12/25 02:09:54;;;;;;;;;;;20.10;40.00;;;;;;5032172;28;19925;-51
2021/12/25 02:12:23;;;;;;;;;;;20.10;40.00;;;;;;5047436;28;19929;-56
2021/12/25 02:14:51;;;;;;;;;;;20.10;40.00;;;;;;5030859;28;19979;-53
2021/12/25 02:17:24;;;;;;;;;;;20.10;40.00;;;;;;5030758;28;19965;-54
2021/12/25 02:20:06;;;;;;;;;;;20.10;40.00;;;;;;5031880;28;19925;-55
2021/12/25 02:22:34;;;;;;;;;;;20.10;40.00;;;;;;5012712;28;19925;-55
2021/12/25 02:25:01;;;;;;;;;;;20.10;40.00;;;;;;5028139;28;19932;-57
2021/12/25 02:27:28;;;;;;;;;;;20.10;40.10;;;;;;5032386;28;19937;-56
2021/12/25 02:29:55;;;;;;;;;;;20.10;40.10;;;;;;5031500;28;20024;-57
2021/12/25 02:32:22;;;;;;;;;;;20.10;40.10;;;;;;5012583;28;19926;-56
2021/12/25 02:34:49;;;;;;;;;;;20.10;40.10;;;;;;5010949;28;20442;-55
2021/12/25 02:37:16;;;;;;;;;;;20.10;40.10;;;;;;5013027;28;19925;-56
2021/12/25 02:39:44;;;;;;;;;;;20.10;40.10;;;;;;5010723;28;19927;-56
2021/12/25 02:42:11;;;;;;;;;;;20.10;40.10;;;;;;5012448;28;20334;-55
2021/12/25 02:44:37;;;;;;;;;;;20.10;40.10;;;;;;5028170;28;19926;-56
2021/12/25 02:47:09;;;;;;;;;;;20.10;40.10;;;;;;5029460;28;19929;-54
2021/12/25 02:49:36;;;;;;;;;;;20.10;40.10;;;;;;5011190;28;20321;-53
2021/12/25 02:52:03;;;;;;;;;;;20.10;40.20;;;;;;5023349;28;19925;-58
2021/12/25 02:54:30;;;;;;;;;;;20.10;40.20;;;;;;5047823;28;19929;-55
2021/12/25 02:56:58;;;;;;;;;;;20.10;40.20;;;;;;5041374;28;20083;-58
2021/12/25 02:59:25;;;;;;;;;;;20.10;40.20;;;;;;5011230;28;20027;-54
2021/12/25 03:01:52;;;;;;;;;;;20.10;40.20;;;;;;5025118;28;19961;-55
2021/12/25 03:04:18;;;;;;;;;;;20.10;40.20;;;;;;5047456;28;19932;-53
2021/12/25 03:06:45;;;;;;;;;;;20.10;40.20;;;;;;5047470;28;20453;-56
2021/12/25 03:09:12;;;;;;;;;;;20.10;40.20;;;;;;5031200;28;20004;-53
2021/12/25 03:11:38;;;;;;;;;;;20.10;40.20;;;;;;5040055;28;19932;-55
2021/12/25 03:14:30;;;;;;;;;;;20.10;40.30;;;;;;5031233;28;19932;-53
2021/12/25 03:16:57;;;;;;;;;;;20.10;40.30;;;;;;5041717;28;19955;-54
2021/12/25 03:19:31;;;;;;;;;;;20.10;40.30;;;;;;5030827;28;19956;-54
2021/12/25 03:21:58;;;;;;;;;;;20.10;40.30;;;;;;5046545;28;20301;-55
2021/12/25 03:24:25;;;;;;;;;;;20.10;40.30;;;;;;5026410;28;19932;-56
2021/12/25 03:26:52;;;;;;;;;;;20.10;40.30;;;;;;5018639;28;19929;-56
2021/12/25 03:29:20;;;;;;;;;;;20.10;40.30;;;;;;5012509;28;20351;-51
2021/12/25 03:31:47;;;;;;;;;;;20.10;40.30;;;;;;5016323;28;19929;-50
2021/12/25 03:34:14;;;;;;;;;;;20.10;40.30;;;;;;5026044;28;19925;-54
2021/12/25 03:36:40;;;;;;;;;;;20.10;40.30;;;;;;5035126;28;19991;-53
2021/12/25 03:39:07;;;;;;;;;;;20.10;40.30;;;;;;5014240;28;20461;-53
2021/12/25 03:41:34;;;;;;;;;;;20.10;40.30;;;;;;5019049;28;19929;-54
2021/12/25 03:44:01;;;;;;;;;;;20.10;40.30;;;;;;5027166;28;20374;-50
2021/12/25 03:46:29;;;;;;;;;;;20.10;40.30;;;;;;5016501;28;19941;-53
2021/12/25 03:49:10;;;;;;;;;;;20.10;40.30;;;;;;5027443;28;19925;-55
2021/12/25 03:59:58;;;;;;;;;;;20.10;40.30;;;;;;5026429;28;19949;-56
2021/12/25 04:02:33;;;;;;;;;;;20.10;40.30;;;;;;5016061;28;19925;-53
2021/12/25 04:05:02;;;;;;;;;;;20.10;40.30;;;;;;5031235;28;20397;-53
2021/12/25 04:07:53;;;;;;;;;;;20.10;40.30;;;;;;5034543;28;19925;-58
2021/12/25 04:10:20;;;;;;;;;;;20.10;40.30;;;;;;5046471;28;20022;-51
2021/12/25 04:12:47;;;;;;;;;;;20.10;40.30;;;;;;5025331;28;19933;-56
2021/12/25 04:15:13;;;;;;;;;;;20.10;40.30;;;;;;5011382;28;20371;-53
2021/12/25 04:17:42;;;;;;;;;;;20.10;40.30;;;;;;5036876;28;20012;-57
2021/12/25 04:20:09;;;;;;;;;;;20.10;40.30;;;;;;5009415;28;20012;-51
2021/12/25 04:22:43;;;;;;;;;;;20.10;40.30;;;;;;5025285;28;20019;-51
2021/12/25 04:25:11;;;;;;;;;;;20.10;40.30;;;;;;5027155;28;20024;-56
2021/12/25 04:27:38;;;;;;;;;;;20.10;40.30;;;;;;5030574;28;20398;-54
2021/12/25 04:30:18;;;;;;;;;;;20.10;40.30;;;;;;5033544;28;20020;-53
2021/12/25 04:33:23;;;;;;;;;;;20.10;40.90;;;;;;5020099;28;19933;-51
2021/12/25 05:03:12;;;;;;;;;;;20.10;40.30;;;;;;5027951;28;19929;-58
2021/12/25 05:05:41;;;;;;;;;;;20.10;40.30;;;;;;5049223;28;20366;-53
2021/12/25 05:08:08;;;;;;;;;;;20.10;40.40;;;;;;5025491;28;19933;-54
2021/12/25 05:10:35;;;;;;;;;;;20.10;40.30;;;;;;5034788;28;20012;-50
2021/12/25 05:13:01;;;;;;;;;;;20.10;40.30;;;;;;5033168;28;19925;-53
2021/12/25 05:15:28;;;;;;;;;;;20.10;40.40;;;;;;5049091;28;19929;-54
2021/12/25 05:17:55;;;;;;;;;;;20.10;40.40;;;;;;5018740;28;20377;-52
2021/12/25 05:20:23;;;;;;;;;;;20.10;40.90;;;;;;5032422;28;19971;-53
2021/12/25 05:22:51;;;;;;;;;;;20.10;40.40;;;;;;5033876;28;19925;-51
2021/12/25 05:25:18;;;;;;;;;;;20.10;40.40;;;;;;5020440;28;20337;-53
2021/12/25 05:27:46;;;;;;;;;;;20.10;40.40;;;;;;5025164;28;19947;-54
2021/12/25 05:30:13;;;;;;;;;;;20.10;40.40;;;;;;5020744;28;19932;-56
2021/12/25 05:32:40;;;;;;;;;;;20.10;40.40;;;;;;5040482;28;20373;-53
2021/12/25 05:35:07;;;;;;;;;;;20.10;40.40;;;;;;5038788;28;20538;-55
2021/12/25 05:37:34;;;;;;;;;;;20.10;40.40;;;;;;5012509;28;19933;-54
2021/12/25 05:40:02;;;;;;;;;;;20.10;40.40;;;;;;5029078;28;19961;-57
2021/12/25 05:42:28;;;;;;;;;;;20.10;40.40;;;;;;5029231;28;19988;-51
2021/12/25 05:44:55;;;;;;;;;;;20.10;40.40;;;;;;5035264;28;19925;-54
2021/12/25 05:47:22;;;;;;;;;;;20.10;40.40;;;;;;5043603;28;20035;-55
2021/12/25 05:49:49;;;;;;;;;;;20.10;40.40;;;;;;5031880;28;19967;-56
2021/12/25 05:52:15;;;;;;;;;;;20.10;40.40;;;;;;5026907;28;20008;-53
2021/12/25 05:54:42;;;;;;;;;;;20.10;40.40;;;;;;5029044;28;20389;-56
2021/12/25 05:57:10;;;;;;;;;;;20.10;40.40;;;;;;5034718;28;19935;-53
2021/12/25 05:59:37;;;;;;;;;;;20.10;40.40;;;;;;5048143;28;20294;-55
2021/12/25 06:02:04;;;;;;;;;;;20.10;40.40;;;;;;5047358;28;19931;-59
2021/12/25 06:04:30;;;;;;;;;;;20.10;40.40;;;;;;5030536;28;19925;-53
2021/12/25 06:06:57;;;;;;;;;;;20.10;40.40;;;;;;5030822;28;19925;-56
2021/12/25 06:09:24;;;;;;;;;;;20.10;40.40;;;;;;5032901;28;19929;-58
2021/12/25 06:11:50;;;;;;;;;;;20.10;40.40;;;;;;5044660;28;19968;-56
2021/12/25 06:14:20;;;;;;;;;;;20.10;40.40;;;;;;5051467;28;20349;-55
2021/12/25 06:16:47;;;;;;;;;;;20.10;40.40;;;;;;5035551;28;20341;-53
2021/12/25 06:19:14;;;;;;;;;;;20.10;40.40;;;;;;5047518;28;19925;-55
2021/12/25 06:21:41;;;;;;;;;;;20.10;40.40;;;;;;5016971;28;19925;-52
2021/12/25 06:24:08;;;;;;;;;;;20.10;40.40;;;;;;5032864;28;19929;-54
2021/12/25 06:26:35;;;;;;;;;;;20.10;40.40;;;;;;5031147;28;19925;-50
2021/12/25 06:29:01;;;;;;;;;;;20.10;40.40;;;;;;5011875;28;20239;-51
2021/12/25 06:31:29;;;;;;;;;;;20.10;40.40;;;;;;5039317;28;19933;-54
2021/12/25 06:33:57;;;;;;;;;;;20.10;40.40;;;;;;5032100;28;19948;-54
2021/12/25 06:36:23;;;;;;;;;;;20.10;40.40;;;;;;5020893;28;19929;-50
2021/12/25 06:38:50;;;;;;;;;;;20.10;40.40;;;;;;5027805;28;20243;-50
2021/12/25 06:41:17;;;;;;;;;;;20.10;40.40;;;;;;5039912;28;20354;-56
2021/12/25 06:43:44;;;;;;;;;;;20.10;40.40;;;;;;5047561;28;19968;-54
2021/12/25 06:46:11;;;;;;;;;;;20.10;40.40;;;;;;5030553;28;20031;-58
2021/12/25 06:48:41;;;;;;;;;;;20.10;40.40;;;;;;5033238;28;20442;-51
2021/12/25 06:51:09;;;;;;;;;;;20.10;40.40;;;;;;5030600;28;19961;-51
2021/12/25 06:53:36;;;;;;;;;;;20.10;40.40;;;;;;5047428;28;19929;-52
2021/12/25 06:56:03;;;;;;;;;;;20.10;40.40;;;;;;5027163;28;20039;-53
2021/12/25 06:58:30;;;;;;;;;;;20.10;40.50;;;;;;5025930;28;19933;-53
2021/12/25 07:00:57;;;;;;;;;;;20.10;40.40;;;;;;5028595;28;20036;-50
2021/12/25 07:03:23;;;;;;;;;;;20.10;40.40;;;;;;5024461;28;19991;-55
2021/12/25 07:05:52;;;;;;;;;;;20.10;40.40;;;;;;5017458;28;19933;-55
2021/12/25 07:08:18;;;;;;;;;;;20.10;40.40;;;;;;5040716;28;19928;-54
2021/12/25 07:10:45;;;;;;;;;;;20.10;40.40;;;;;;5030125;28;19925;-55
2021/12/25 07:13:16;;;;;;;;;;;20.10;40.40;;;;;;5027166;28;19929;-56
2021/12/25 07:15:43;;;;;;;;;;;20.10;40.40;;;;;;5039559;28;20394;-54
2021/12/25 07:18:10;;;;;;;;;;;20.10;40.40;;;;;;5030831;28;19990;-58
2021/12/25 07:20:36;;;;;;;;;;;20.10;40.40;;;;;;5037421;28;20282;-56
2021/12/25 07:23:04;;;;;;;;;;;20.10;40.40;;;;;;5024543;28;19932;-56
2021/12/25 07:25:31;;;;;;;;;;;20.10;40.50;;;;;;5029106;28;19933;-56
2021/12/25 07:27:58;;;;;;;;;;;20.10;40.40;;;;;;5022776;28;20021;-57
2021/12/25 07:30:25;;;;;;;;;;;20.10;40.40;;;;;;5034240;28;19929;-56
2021/12/25 07:32:51;;;;;;;;;;;20.10;40.50;;;;;;5039721;28;19925;-53
2021/12/25 07:35:19;;;;;;;;;;;20.10;40.40;;;;;;5019035;28;19952;-56
2021/12/25 07:37:46;;;;;;;;;;;20.10;40.40;;;;;;5027503;28;19925;-55
2021/12/25 07:40:14;;;;;;;;;;;20.10;40.50;;;;;;5028140;28;19929;-53
2021/12/25 07:42:41;;;;;;;;;;;20.10;40.50;;;;;;5028689;28;20011;-56
2021/12/25 07:45:08;;;;;;;;;;;20.10;40.40;;;;;;5044644;28;19925;-54
2021/12/25 07:47:35;;;;;;;;;;;20.10;40.40;;;;;;5023989;28;20590;-52
2021/12/25 07:50:02;;;;;;;;;;;20.10;40.50;;;;;;5021061;28;19925;-52
2021/12/25 07:52:29;;;;;;;;;;;20.10;40.40;;;;;;5023533;28;19925;-55
2021/12/25 07:54:56;;;;;;;;;;;20.10;40.50;;;;;;5032411;28;19925;-55
2021/12/25 07:57:24;;;;;;;;;;;20.10;40.50;;;;;;5015392;28;19930;-55
2021/12/25 07:59:51;;;;;;;;;;;20.10;40.40;;;;;;5032392;28;19987;-55
2021/12/25 08:02:18;;;;;;;;;;;20.10;40.50;;;;;;5034941;28;19947;-50
2021/12/25 08:04:44;;;;;;;;;;;20.10;40.50;;;;;;5032860;28;20400;-52
2021/12/25 08:07:11;;;;;;;;;;;20.10;40.50;;;;;;5050485;28;20023;-55
2021/12/25 08:09:38;;;;;;;;;;;20.10;40.50;;;;;;5033624;28;20027;-56
2021/12/25 08:12:05;;;;;;;;;;;20.10;40.50;;;;;;5033824;28;19928;-56
2021/12/25 08:14:33;;;;;;;;;;;20.10;40.50;;;;;;5035237;28;19931;-55
2021/12/25 08:17:00;;;;;;;;;;;20.10;40.50;;;;;;5047551;28;19924;-52
2021/12/25 08:19:27;;;;;;;;;;;20.10;40.50;;;;;;5056827;28;20008;-54
2021/12/25 08:21:54;;;;;;;;;;;20.10;40.50;;;;;;5050159;28;20020;-54
2021/12/25 08:24:21;;;;;;;;;;;20.10;40.50;;;;;;5021452;28;19930;-53
2021/12/25 08:26:48;;;;;;;;;;;20.10;40.50;;;;;;5030743;28;20361;-54
2021/12/25 08:29:14;;;;;;;;;;;20.10;40.50;;;;;;5024670;28;19922;-55
2021/12/25 08:31:43;;;;;;;;;;;20.10;40.50;;;;;;5032030;28;19929;-53
2021/12/25 08:34:09;;;;;;;;;;;20.10;40.50;;;;;;5024971;28;20362;-57
2021/12/25 08:36:36;;;;;;;;;;;20.10;40.50;;;;;;5026333;28;19930;-54
2021/12/25 08:39:03;;;;;;;;;;;20.10;40.50;;;;;;5042216;28;20012;-56
2021/12/25 08:41:31;;;;;;;;;;;20.10;40.50;;;;;;5037386;28;20015;-57
2021/12/25 08:44:05;;;;;;;;;;;20.10;40.50;;;;;;5026525;28;20434;-56
2021/12/25 08:46:44;;;;;;;;;;;20.10;40.50;;;;;;5029993;28;20066;-54
2021/12/25 08:49:15;;;;;;;;;;;20.10;41.10;;;;;;5024316;28;19926;-51
2021/12/25 08:51:43;;;;;;;;;;;20.10;40.50;;;;;;5029168;28;19929;-58
2021/12/25 08:54:09;;;;;;;;;;;20.00;40.50;;;;;;5038914;28;20282;-52
2021/12/25 08:56:36;;;;;;;;;;;20.10;40.50;;;;;;5042908;28;19926;-57
2021/12/25 08:59:03;;;;;;;;;;;20.10;40.50;;;;;;5042089;28;20368;-52
2021/12/25 09:01:29;;;;;;;;;;;20.10;40.50;;;;;;5024316;28;19999;-56
2021/12/25 09:03:56;;;;;;;;;;;20.10;40.50;;;;;;5028102;28;19992;-52
2021/12/25 09:06:25;;;;;;;;;;;20.10;40.50;;;;;;5028717;28;19929;-53
2021/12/25 09:08:52;;;;;;;;;;;20.10;40.50;;;;;;5028834;28;20359;-56
2021/12/25 09:11:21;;;;;;;;;;;20.10;40.50;;;;;;5025001;28;20285;-59
2021/12/25 09:13:48;;;;;;;;;;;20.10;40.50;;;;;;5028804;28;19929;-53
2021/12/25 09:16:15;;;;;;;;;;;20.10;40.50;;;;;;5038769;28;19933;-54
2021/12/25 09:18:41;;;;;;;;;;;20.10;40.50;;;;;;5026676;28;19929;-51
2021/12/25 09:21:08;;;;;;;;;;;20.10;40.50;;;;;;5026282;28;19940;-57
2021/12/25 09:23:36;;;;;;;;;;;20.10;40.60;;;;;;5026884;28;19925;-55
2021/12/25 09:26:03;;;;;;;;;;;20.10;40.50;;;;;;5025911;28;20378;-56
2021/12/25 09:28:29;;;;;;;;;;;20.10;40.50;;;;;;5041256;28;19936;-57
2021/12/25 09:30:56;;;;;;;;;;;20.10;40.50;;;;;;5022947;28;20008;-59
2021/12/25 09:33:23;;;;;;;;;;;20.10;40.50;;;;;;5037365;28;20374;-54
2021/12/25 09:35:50;;;;;;;;;;;20.10;40.50;;;;;;5024855;28;19925;-55
2021/12/25 09:38:16;;;;;;;;;;;20.10;40.50;;;;;;5025982;28;19925;-55
2021/12/25 09:40:45;;;;;;;;;;;20.10;40.50;;;;;;5023881;28;20388;-53
2021/12/25 09:43:13;;;;;;;;;;;20.10;40.50;;;;;;5026967;28;19956;-54
2021/12/25 09:45:40;;;;;;;;;;;20.10;40.50;;;;;;5023865;28;20282;-55
2021/12/25 09:48:07;;;;;;;;;;;20.10;40.50;;;;;;5031517;28;20020;-51
2021/12/25 09:50:34;;;;;;;;;;;20.10;40.50;;;;;;5040931;28;19957;-58
2021/12/25 09:53:02;;;;;;;;;;;20.10;40.50;;;;;;5023927;28;19925;-54
2021/12/25 09:55:29;;;;;;;;;;;20.10;40.40;;;;;;5024860;28;20016;-57
2021/12/25 09:57:57;;;;;;;;;;;20.10;40.40;;;;;;5025735;28;20024;-55
2021/12/25 10:00:24;;;;;;;;;;;20.10;40.40;;;;;;5040174;28;20472;-59
2021/12/25 10:02:51;;;;;;;;;;;20.10;40.40;;;;;;5038922;28;20011;-56
2021/12/25 10:05:25;;;;;;;;;;;20.10;40.40;;;;;;5026720;28;20035;-55
2021/12/25 10:08:00;;;;;;;;;;;20.10;40.40;;;;;;5028323;28;20016;-56
2021/12/25 10:10:31;;;;;;;;;;;20.10;40.40;;;;;;5025874;28;19933;-51
2021/12/25 10:13:00;;;;;;;;;;;20.10;40.40;;;;;;5025042;28;19925;-53
2021/12/25 10:15:28;;;;;;;;;;;20.10;40.40;;;;;;5025274;28;19983;-52
2021/12/25 10:17:56;;;;;;;;;;;20.10;40.30;;;;;;5018510;28;19929;-54
2021/12/25 10:20:23;;;;;;;;;;;20.10;40.30;;;;;;5031575;28;20039;-55
2021/12/25 10:22:58;;;;;;;;;;;20.10;40.30;;;;;;5026946;28;20345;-55
2021/12/25 10:25:27;;;;;;;;;;;20.10;40.30;;;;;;5023925;28;19933;-57
2021/12/25 10:27:55;;;;;;;;;;;20.10;40.30;;;;;;5044014;28;19929;-57
2021/12/25 10:30:23;;;;;;;;;;;20.10;40.30;;;;;;5044327;28;19933;-55
2021/12/25 10:32:50;;;;;;;;;;;20.10;40.30;;;;;;5040807;28;19925;-59
2021/12/25 10:35:17;;;;;;;;;;;20.10;40.20;;;;;;5039007;28;20119;-59
2021/12/25 10:37:44;;;;;;;;;;;20.10;40.20;;;;;;5023716;28;20067;-56
2021/12/25 10:40:18;;;;;;;;;;;20.10;40.30;;;;;;5023502;28;20375;-53
2021/12/25 10:42:45;;;;;;;;;;;20.10;40.20;;;;;;5025422;28;19925;-56
2021/12/25 10:45:13;;;;;;;;;;;20.10;40.20;;;;;;5036832;28;20022;-58
2021/12/25 10:47:41;;;;;;;;;;;20.10;40.20;;;;;;5026588;28;19933;-55
2021/12/25 10:50:10;;;;;;;;;;;20.10;40.20;;;;;;5028829;28;19972;-55
2021/12/25 10:52:41;;;;;;;;;;;20.10;40.30;;;;;;5025316;28;19929;-55
2021/12/25 10:55:14;;;;;;;;;;;20.10;40.30;;;;;;5041990;28;19929;-53
2021/12/25 10:57:41;;;;;;;;;;;20.10;40.30;;;;;;5042876;28;20277;-50
2021/12/25 11:00:09;;;;;;;;;;;20.10;40.30;;;;;;5024057;28;20086;-53
2021/12/25 11:02:36;;;;;;;;;;;20.10;40.30;;;;;;5025364;28;20023;-57
2021/12/25 11:05:16;;;;;;;;;;;20.10;40.30;;;;;;5028824;28;19940;-59
2021/12/25 11:07:42;;;;;;;;;;;20.10;36.90;;;;;;5043411;28;20011;-58
2021/12/25 11:10:44;;;;;;;;;;;19.90;28.10;;;;;;5077802;28;19921;-57
2021/12/25 11:13:20;;;;;;;;;;;19.60;25.20;;;;;;5076667;28;19924;-57
2021/12/25 11:15:47;;;;;;;;;;;19.30;25.10;;;;;;5078671;28;20264;-56
2021/12/25 11:18:15;;;;;;;;;;;19.10;27.50;;;;;;5079131;28;19924;-52
2021/12/25 11:20:43;;;;;;;;;;;19.00;29.20;;;;;;5081112;28;19925;-59
2021/12/25 11:23:10;;;;;;;;;;;18.90;30.70;;;;;;5082539;28;19978;-57
2021/12/25 11:25:37;;;;;;;;;;;18.90;32.00;;;;;;5082843;28;19928;-53
2021/12/25 11:28:06;;;;;;;;;;;18.90;33.20;;;;;;5080817;28;19924;-57
2021/12/25 11:30:34;;;;;;;;;;;18.90;34.10;;;;;;5082578;28;20006;-58
2021/12/25 11:33:00;;;;;;;;;;;18.90;34.60;;;;;;5082602;28;19934;-56
2021/12/25 11:35:27;;;;;;;;;;;19.00;35.00;;;;;;5078304;28;19928;-58
2021/12/25 11:37:55;;;;;;;;;;;19.00;35.30;;;;;;5083544;28;20110;-54
2021/12/25 11:40:23;;;;;;;;;;;19.00;35.50;;;;;;5079648;28;20369;-56
2021/12/25 11:42:52;;;;;;;;;;;19.10;35.80;;;;;;5075756;28;20625;-56
2021/12/25 11:45:22;;;;;;;;;;;19.10;36.00;;;;;;5080769;28;20311;-56
2021/12/25 11:47:51;;;;;;;;;;;19.20;36.20;;;;;;5082026;28;20019;-56
2021/12/25 11:50:18;;;;;;;;;;;19.20;36.30;;;;;;5081028;28;19934;-57
2021/12/25 11:52:51;;;;;;;;;;;19.20;36.40;;;;;;5078405;28;19925;-57
2021/12/25 11:55:27;;;;;;;;;;;19.20;36.50;;;;;;5091474;28;19924;-58
2021/12/25 11:58:03;;;;;;;;;;;19.30;36.70;;;;;;5079001;28;19978;-57
2021/12/25 12:00:44;;;;;;;;;;;19.30;36.80;;;;;;5065422;28;19946;-57
2021/12/25 12:03:32;;;;;;;;;;;19.30;36.90;;;;;;5090133;28;19970;-57
2021/12/25 12:06:00;;;;;;;;;;;19.40;37.00;;;;;;5077380;28;19925;-52
2021/12/25 12:08:27;;;;;;;;;;;19.40;37.00;;;;;;5081317;28;20532;-55
2021/12/25 12:10:56;;;;;;;;;;;19.40;37.10;;;;;;5081623;28;20377;-53
2021/12/25 12:13:24;;;;;;;;;;;19.40;37.20;;;;;;5078045;28;19929;-57
2021/12/25 12:15:51;;;;;;;;;;;19.40;37.30;;;;;;5076229;28;19974;-57
2021/12/25 12:18:34;;;;;;;;;;;19.40;37.40;;;;;;5076535;28;19950;-55
2021/12/25 12:21:08;;;;;;;;;;;19.50;37.40;;;;;;5067916;28;19924;-52
2021/12/25 12:23:41;;;;;;;;;;;19.50;37.50;;;;;;5061682;28;19924;-55
2021/12/25 12:26:11;;;;;;;;;;;19.50;37.60;;;;;;5067725;28;19924;-52
2021/12/25 12:28:44;;;;;;;;;;;19.50;37.70;;;;;;5061217;28;19932;-57
2021/12/25 12:31:26;;;;;;;;;;;19.50;37.70;;;;;;5076801;28;20341;-53
2021/12/25 12:33:53;;;;;;;;;;;19.50;37.70;;;;;;5066044;28;19994;-55
2021/12/25 12:36:22;;;;;;;;;;;19.50;37.80;;;;;;5060711;28;20069;-53
2021/12/25 12:38:53;;;;;;;;;;;19.60;37.90;;;;;;5068033;28;20708;-54
2021/12/25 12:41:23;;;;;;;;;;;19.60;38.00;;;;;;5066362;28;19932;-60
2021/12/25 12:44:04;;;;;;;;;;;19.60;38.00;;;;;;5064063;28;20296;-56
2021/12/25 12:46:50;;;;;;;;;;;19.60;38.00;;;;;;5064175;28;19928;-56
2021/12/25 12:49:18;;;;;;;;;;;19.60;38.10;;;;;;5065253;28;19971;-53
2021/12/25 12:51:47;;;;;;;;;;;19.60;38.10;;;;;;5065705;28;19925;-55
2021/12/25 12:54:28;;;;;;;;;;;19.60;38.20;;;;;;5064885;28;19943;-57
2021/12/25 12:57:01;;;;;;;;;;;19.60;38.20;;;;;;5063420;28;19929;-53
2021/12/25 12:59:41;;;;;;;;;;;19.70;38.30;;;;;;5064676;28;20011;-54
2021/12/25 13:02:08;;;;;;;;;;;19.60;38.30;;;;;;5059974;28;20297;-57
2021/12/25 13:04:41;;;;;;;;;;;19.60;38.30;;;;;;5064605;28;20389;-59
2021/12/25 13:07:11;;;;;;;;;;;19.60;38.30;;;;;;5066454;28;19933;-53
2021/12/25 13:09:43;;;;;;;;;;;19.70;38.50;;;;;;5062479;28;19971;-55
2021/12/25 13:12:22;;;;;;;;;;;19.70;38.50;;;;;;5065319;28;20019;-55
2021/12/25 13:14:57;;;;;;;;;;;19.70;38.50;;;;;;5066610;28;19925;-56
2021/12/25 13:17:24;;;;;;;;;;;19.70;38.50;;;;;;5061724;28;19924;-58
2021/12/25 13:19:50;;;;;;;;;;;19.70;38.60;;;;;;5063758;28;19928;-57
2021/12/25 13:22:19;;;;;;;;;;;19.70;38.60;;;;;;5060325;28;20039;-58
2021/12/25 13:24:45;;;;;;;;;;;19.70;38.60;;;;;;5055943;28;19979;-58
2021/12/25 13:27:17;;;;;;;;;;;19.70;38.70;;;;;;5056376;28;19925;-53
2021/12/25 13:29:44;;;;;;;;;;;19.70;38.70;;;;;;5058679;28;19928;-50
2021/12/25 13:32:11;;;;;;;;;;;19.70;38.80;;;;;;5064250;28;19932;-51
2021/12/25 13:34:38;;;;;;;;;;;19.70;38.90;;;;;;5067202;28;19924;-53
2021/12/25 13:37:06;;;;;;;;;;;19.70;38.90;;;;;;5061608;28;19928;-52
2021/12/25 13:39:37;;;;;;;;;;;19.70;38.90;;;;;;5057778;28;20324;-51
2021/12/25 13:42:07;;;;;;;;;;;19.80;39.00;;;;;;5063938;28;19925;-52
2021/12/25 13:44:34;;;;;;;;;;;19.80;39.00;;;;;;5065494;28;20366;-54
2021/12/25 13:47:01;;;;;;;;;;;19.80;39.00;;;;;;5059926;28;19975;-53
2021/12/25 13:49:32;;;;;;;;;;;19.80;39.00;;;;;;5064344;28;20304;-53
2021/12/25 13:51:59;;;;;;;;;;;19.80;39.00;;;;;;5064231;28;20227;-51
2021/12/25 13:54:26;;;;;;;;;;;19.80;39.00;;;;;;5063138;28;19935;-54
2021/12/25 13:56:55;;;;;;;;;;;19.80;39.00;;;;;;5063181;28;20806;-49
2021/12/25 13:59:21;;;;;;;;;;;19.80;39.10;;;;;;5062146;28;19931;-54
2021/12/25 14:01:55;;;;;;;;;;;19.80;39.10;;;;;;5060848;28;19936;-52
2021/12/25 14:04:22;;;;;;;;;;;19.80;39.20;;;;;;5072830;28;20019;-54
2021/12/25 14:06:49;;;;;;;;;;;19.80;39.30;;;;;;5064307;28;20370;-50
2021/12/25 14:09:15;;;;;;;;;;;19.80;39.40;;;;;;5064041;28;20329;-50
2021/12/25 14:11:50;;;;;;;;;;;19.90;39.50;;;;;;5066776;28;20019;-56
2021/12/25 14:14:19;;;;;;;;;;;19.90;39.50;;;;;;5062007;28;19924;-52
2021/12/25 14:16:47;;;;;;;;;;;19.90;39.60;;;;;;5055188;28;19932;-51
2021/12/25 14:19:14;;;;;;;;;;;19.90;39.60;;;;;;5063745;28;19935;-51
2021/12/25 14:21:40;;;;;;;;;;;19.90;39.70;;;;;;5058710;28;19929;-54
2021/12/25 14:24:13;;;;;;;;;;;19.90;39.70;;;;;;5057073;28;19974;-52
2021/12/25 14:26:39;;;;;;;;;;;19.90;39.70;;;;;;5064634;28;19994;-49
2021/12/25 14:29:20;;;;;;;;;;;19.90;39.70;;;;;;5060897;28;19925;-56
2021/12/25 14:31:46;;;;;;;;;;;19.90;39.70;;;;;;5053061;28;19948;-50
2021/12/25 14:34:13;;;;;;;;;;;20.00;39.80;;;;;;5052717;28;20044;-55
2021/12/25 14:36:41;;;;;;;;;;;20.00;39.80;;;;;;5056267;28;20424;-53
2021/12/25 14:39:08;;;;;;;;;;;20.00;39.80;;;;;;5069964;28;19929;-51
2021/12/25 14:41:35;;;;;;;;;;;20.00;39.70;;;;;;5075999;28;19928;-51
2021/12/25 14:44:13;;;;;;;;;;;20.00;39.80;;;;;;5073718;28;19925;-58
2021/12/25 14:46:42;;;;;;;;;;;20.00;39.80;;;;;;5057418;28;19925;-50
2021/12/25 14:49:09;;;;;;;;;;;20.00;39.80;;;;;;5061178;28;19939;-51
2021/12/25 14:51:37;;;;;;;;;;;20.00;39.80;;;;;;5060828;28;19925;-53
2021/12/25 14:54:04;;;;;;;;;;;20.00;39.80;;;;;;5066422;28;19924;-50
2021/12/25 14:56:32;;;;;;;;;;;20.00;39.80;;;;;;5061306;28;19925;-49
2021/12/25 14:59:00;;;;;;;;;;;20.00;39.80;;;;;;5057636;28;20434;-52
2021/12/25 15:01:28;;;;;;;;;;;20.00;39.80;;;;;;5054919;28;19962;-50
2021/12/25 15:04:03;;;;;;;;;;;20.00;39.80;;;;;;5058799;28;19979;-53
2021/12/25 15:06:30;;;;;;;;;;;20.00;39.80;;;;;;5057359;28;19932;-51
2021/12/25 15:09:01;;;;;;;;;;;20.00;39.80;;;;;;5068168;28;19928;-52
2021/12/25 15:11:31;;;;;;;;;;;20.00;39.90;;;;;;5061255;28;19925;-54
2021/12/25 15:13:58;;;;;;;;;;;20.00;39.90;;;;;;5059585;28;20377;-52
2021/12/25 15:16:33;;;;;;;;;;;20.00;39.80;;;;;;5065778;28;19931;-53
2021/12/25 15:19:00;;;;;;;;;;;20.00;39.90;;;;;;5064486;28;20316;-53